createdAt,value
2018-12-09T00:03:20.792Z,96941.62
2018-12-09T00:09:24.259Z,96929.86
2018-12-09T00:15:27.582Z,96928.40
2018-12-09T00:21:30.884Z,96932.53
2018-12-09T00:27:34.205Z,96911.26
2018-12-09T00:33:37.516Z,96897.84
2018-12-09T00:39:40.818Z,96895.61
2018-12-09T00:45:44.129Z,96888.20
2018-12-09T00:51:47.432Z,96866.17
2018-12-09T00:57:50.735Z,96865.17
2018-12-09T01:03:54.041Z,96870.07
2018-12-09T01:09:57.345Z,96851.55
2018-12-09T01:16:00.716Z,96863.69
2018-12-09T01:22:04.084Z,96906.10
2018-12-09T01:28:07.392Z,96957.41
2018-12-09T01:34:10.697Z,96956.86
2018-12-09T01:40:14.002Z,96946.41
2018-12-09T01:46:17.305Z,96952.52
2018-12-09T01:52:21.016Z,96933.70
2018-12-09T01:58:24.322Z,96926.31
2018-12-09T02:04:27.628Z,96931.14
2018-12-09T02:10:30.934Z,96928.55
2018-12-09T02:16:34.316Z,96936.40
2018-12-09T02:22:37.630Z,96924.19
2018-12-09T02:28:40.929Z,96929.52
2018-12-09T02:34:50.503Z,96940.30
2018-12-09T02:40:53.822Z,96941.29
2018-12-09T02:46:57.130Z,96936.08
2018-12-09T02:53:00.576Z,96922.70
2018-12-09T02:59:04.410Z,96929.61
2018-12-09T03:05:08.173Z,96931.59
2018-12-09T03:11:11.497Z,96926.94
2018-12-09T03:17:14.805Z,96935.41
2018-12-09T03:23:18.135Z,96937.42
2018-12-09T03:29:21.450Z,96953.42
2018-12-09T03:35:24.832Z,96947.09
2018-12-09T03:41:28.463Z,96958.78
2018-12-09T03:47:31.776Z,96962.84
2018-12-09T03:53:35.101Z,96981.06
2018-12-09T03:59:38.407Z,96975.55
2018-12-09T04:05:41.830Z,96974.92
2018-12-09T04:11:45.152Z,96988.25
2018-12-09T04:17:48.469Z,96983.97
2018-12-09T04:23:51.775Z,97000.63
2018-12-09T04:29:55.194Z,97006.83
2018-12-09T04:35:58.505Z,97002.33
2018-12-09T04:42:01.832Z,96999.02
2018-12-09T04:48:05.167Z,97006.59
2018-12-09T04:54:08.885Z,97029.14
2018-12-09T05:06:54.647Z,97031.15
2018-12-09T05:12:57.997Z,97036.06
2018-12-09T05:19:01.794Z,97038.20
2018-12-09T05:25:05.205Z,97047.77
2018-12-09T05:31:08.526Z,97054.36
2018-12-09T05:37:11.851Z,97058.05
2018-12-09T05:43:15.179Z,97076.85
2018-12-09T05:49:18.510Z,97074.64
2018-12-09T05:55:21.851Z,97066.53
2018-12-09T06:01:25.182Z,97082.50
2018-12-09T06:07:28.549Z,97071.30
2018-12-09T06:13:32.000Z,97075.37
2018-12-09T06:19:35.350Z,97088.50
2018-12-09T06:25:38.697Z,97097.83
2018-12-09T06:31:42.038Z,97117.05
2018-12-09T06:37:45.381Z,97114.80
2018-12-09T06:43:48.702Z,97115.86
2018-12-09T06:49:52.099Z,97114.06
2018-12-09T06:55:55.423Z,97116.72
2018-12-09T07:01:58.756Z,97118.94
2018-12-09T07:08:02.094Z,97129.81
2018-12-09T07:14:05.411Z,97147.54
2018-12-09T07:20:08.747Z,97155.59
2018-12-09T07:26:12.091Z,97145.36
2018-12-09T07:32:15.927Z,97162.20
2018-12-09T07:38:19.256Z,97160.59
2018-12-09T07:44:22.577Z,97172.75
2018-12-09T07:50:25.900Z,97172.13
2018-12-09T07:56:29.241Z,97173.92
2018-12-09T08:02:32.569Z,97186.60
2018-12-09T08:08:36.182Z,97185.34
2018-12-09T08:14:39.498Z,97198.61
2018-12-09T08:20:42.818Z,97202.79
2018-12-09T08:26:46.151Z,97220.88
2018-12-09T08:32:49.468Z,97220.76
2018-12-09T08:38:52.790Z,97219.95
2018-12-09T08:44:56.126Z,97223.26
2018-12-09T08:50:59.464Z,97220.45
2018-12-09T08:57:02.888Z,97230.17
2018-12-09T09:03:06.210Z,97239.36
2018-12-09T09:09:09.562Z,97245.76
2018-12-09T09:15:12.882Z,97250.16
2018-12-09T09:21:16.202Z,97247.53
2018-12-09T09:27:19.531Z,97247.70
2018-12-09T09:33:22.850Z,97245.10
2018-12-09T09:39:26.184Z,97259.84
2018-12-09T09:45:29.525Z,97270.75
2018-12-09T09:51:32.851Z,97270.23
2018-12-09T09:57:36.261Z,97278.28
2018-12-09T10:03:39.713Z,97294.75
2018-12-09T10:09:43.031Z,97315.36
2018-12-09T10:15:46.358Z,97354.74
2018-12-09T10:21:49.677Z,97354.88
2018-12-09T10:27:53.037Z,97357.59
2018-12-09T10:33:56.484Z,97358.39
2018-12-09T10:39:59.820Z,97362.14
2018-12-09T10:46:03.141Z,97376.64
2018-12-09T10:52:06.461Z,97389.45
2018-12-09T10:58:09.787Z,97396.58
2018-12-09T11:04:13.116Z,97389.70
2018-12-09T11:10:16.447Z,97398.52
2018-12-09T11:16:19.762Z,97404.09
2018-12-09T11:22:23.087Z,97410.84
2018-12-09T11:28:26.412Z,97411.89
2018-12-09T11:34:29.731Z,97429.06
2018-12-09T11:40:33.049Z,97418.63
2018-12-09T11:46:36.370Z,97416.50
2018-12-09T11:52:39.730Z,97423.94
2018-12-09T11:58:43.052Z,97430.98
2018-12-09T12:04:46.379Z,97441.53
2018-12-09T12:10:49.704Z,97459.00
2018-12-09T12:16:53.025Z,97465.39
2018-12-09T12:22:56.349Z,97475.66
2018-12-09T12:29:00.005Z,97488.06
2018-12-09T12:35:03.683Z,97491.43
2018-12-09T12:41:07.044Z,97487.22
2018-12-09T12:47:10.359Z,97484.16
2018-12-09T12:53:13.681Z,97491.67
2018-12-09T12:59:17.007Z,97495.09
2018-12-09T13:05:20.335Z,97525.45
2018-12-09T13:11:23.659Z,97514.97
2018-12-09T13:17:27.000Z,97523.44
2018-12-09T13:23:30.340Z,97531.74
2018-12-09T13:29:33.666Z,97535.29
2018-12-09T13:35:36.996Z,97558.32
2018-12-09T13:41:40.356Z,97566.06
2018-12-09T13:47:43.682Z,97575.31
2018-12-09T13:53:47.004Z,97561.25
2018-12-09T13:59:50.342Z,97584.12
2018-12-09T14:05:53.701Z,97614.45
2018-12-09T14:11:57.029Z,97618.52
2018-12-09T14:18:00.342Z,97623.55
2018-12-09T14:24:03.690Z,97627.18
2018-12-09T14:30:07.660Z,97631.33
2018-12-09T14:36:10.993Z,97640.89
2018-12-09T14:42:14.332Z,97648.98
2018-12-09T14:48:17.654Z,97658.00
2018-12-09T14:54:20.980Z,97677.20
2018-12-09T15:00:24.316Z,97671.86
2018-12-09T15:06:27.640Z,97694.02
2018-12-09T15:18:45.451Z,97719.07
2018-12-09T15:24:48.780Z,97735.02
2018-12-09T15:30:52.121Z,97756.99
2018-12-09T15:36:55.427Z,97770.63
2018-12-09T15:42:58.739Z,97793.95
2018-12-09T15:49:02.076Z,97811.72
2018-12-09T15:55:05.657Z,97814.07
2018-12-09T16:01:08.971Z,97837.04
2018-12-09T16:07:12.411Z,97829.68
2018-12-09T16:13:15.835Z,97854.86
2018-12-09T16:19:19.151Z,97860.73
2018-12-09T16:25:22.473Z,97876.18
2018-12-09T16:31:25.797Z,97886.61
2018-12-09T16:37:29.124Z,97891.52
2018-12-09T16:43:32.464Z,97898.89
2018-12-09T16:49:35.817Z,97903.89
2018-12-09T16:55:39.134Z,97910.55
2018-12-09T17:01:42.467Z,97929.84
2018-12-09T17:07:45.784Z,97941.42
2018-12-09T17:13:49.103Z,97955.23
2018-12-09T17:19:52.428Z,97967.34
2018-12-09T17:25:55.789Z,97982.36
2018-12-09T17:31:59.122Z,97986.47
2018-12-09T17:38:02.454Z,98013.95
2018-12-09T17:44:06.293Z,98038.02
2018-12-09T17:50:09.606Z,98052.24
2018-12-09T17:56:12.934Z,98062.83
2018-12-09T18:02:16.257Z,98080.23
2018-12-09T18:08:19.594Z,98087.83
2018-12-09T18:14:22.914Z,98104.63
2018-12-09T18:20:26.260Z,98106.58
2018-12-09T18:26:29.572Z,98121.75
2018-12-09T18:32:32.897Z,98138.45
2018-12-09T18:38:36.301Z,98148.98
2018-12-09T18:44:39.648Z,98166.93
2018-12-09T18:50:42.989Z,98170.21
2018-12-09T18:56:46.319Z,98177.08
2018-12-09T19:02:49.661Z,98191.52
2018-12-09T19:08:53.076Z,98200.88
2018-12-09T19:14:56.402Z,98262.63
2018-12-09T19:20:59.832Z,98278.31
2018-12-09T19:27:03.285Z,98285.28
2018-12-09T19:33:06.621Z,98298.24
2018-12-09T19:39:09.952Z,98305.33
2018-12-09T19:45:13.362Z,98324.31
2018-12-09T19:51:16.760Z,98342.36
2018-12-09T19:57:20.160Z,98352.64
2018-12-09T20:03:23.477Z,98370.00
2018-12-09T20:09:26.798Z,98378.11
2018-12-09T20:15:30.122Z,98378.75
2018-12-09T20:21:33.546Z,98392.36
2018-12-09T20:27:37.437Z,98394.33
2018-12-09T20:33:40.799Z,98396.41
2018-12-09T20:39:44.104Z,98419.32
2018-12-09T20:45:47.431Z,98427.90
2018-12-09T20:51:50.747Z,98443.48
2018-12-09T20:57:54.072Z,98461.85
2018-12-09T21:03:57.401Z,98472.01
2018-12-09T21:10:00.722Z,98482.69
2018-12-09T21:16:04.047Z,98477.42
2018-12-09T21:22:07.376Z,98490.25
2018-12-09T21:28:10.697Z,98519.77
2018-12-09T21:34:14.095Z,98522.06
2018-12-09T21:40:17.414Z,98531.56
2018-12-09T21:46:20.747Z,98529.84
2018-12-09T21:52:24.062Z,98554.47
2018-12-09T21:58:27.402Z,98562.09
2018-12-09T22:04:30.732Z,98558.88
2018-12-09T22:10:34.111Z,98566.81
2018-12-09T22:16:37.448Z,98571.89
2018-12-09T22:22:40.780Z,98584.59
2018-12-09T22:28:44.111Z,98600.02
2018-12-09T22:34:47.439Z,98616.13
2018-12-09T22:40:50.765Z,98618.62
2018-12-09T22:46:54.103Z,98608.33
2018-12-09T22:52:57.417Z,98635.40
2018-12-09T22:59:00.737Z,98651.27
2018-12-09T23:05:04.310Z,98661.55
2018-12-09T23:11:07.659Z,98675.58
2018-12-09T23:17:10.973Z,98689.12
2018-12-09T23:23:14.312Z,98694.01
2018-12-09T23:29:17.647Z,98701.88
2018-12-09T23:35:20.968Z,98715.23
2018-12-09T23:41:24.308Z,98734.95
2018-12-09T23:47:27.634Z,98738.12
2018-12-09T23:53:30.965Z,98741.84
2018-12-09T23:59:34.309Z,98750.33
